Time;durP1;ratioP1;P1;durP2;ratioP2;P2;SDS_P1;SDS_P2;PMS_P1;PMS_P2;Temp;Humidity;BMP_temperature;BMP_pressure;BME280_temperature;BME280_humidity;BME280_pressure;Samples;Min_cycle;Max_cycle;Signal;HPM_P1;HPM_P2
2023/04/30 00:01:54;;;;;;;9.55;6.47;;;;;;;10.74;70.07;102247.69;5054426;28;20039;-67
2023/04/30 00:04:19;;;;;;;13.18;7.35;;;;;;;10.72;70.36;102249.41;5054852;28;20033;-66
2023/04/30 00:06:45;;;;;;;16.23;7.53;;;;;;;10.68;70.76;102244.88;5055102;28;20048;-67
2023/04/30 00:09:10;;;;;;;13.65;6.75;;;;;;;10.68;70.37;102243.97;5055008;28;20071;-67
2023/04/30 00:11:36;;;;;;;10.82;7.15;;;;;;;10.60;71.10;102246.34;5054996;28;20425;-67
2023/04/30 00:14:01;;;;;;;11.88;6.97;;;;;;;10.50;71.17;102241.63;5054976;28;20082;-67
2023/04/30 00:16:26;;;;;;;13.23;6.90;;;;;;;10.51;71.26;102246.94;5055024;28;20474;-66
2023/04/30 00:18:52;;;;;;;13.07;6.72;;;;;;;10.52;71.57;102247.84;5054924;28;20040;-66
2023/04/30 00:21:17;;;;;;;11.75;7.10;;;;;;;10.55;71.23;102242.66;5054769;28;20025;-67
2023/04/30 00:23:43;;;;;;;12.75;7.22;;;;;;;10.57;70.71;102245.34;5054806;28;20474;-66
2023/04/30 00:26:08;;;;;;;11.40;6.63;;;;;;;10.58;70.86;102249.78;5054741;28;20074;-67
2023/04/30 00:28:33;;;;;;;12.00;7.18;;;;;;;10.56;71.10;102246.22;5054605;28;20021;-67
2023/04/30 00:30:59;;;;;;;12.23;7.20;;;;;;;10.53;71.08;102242.63;5054769;28;20047;-67
2023/04/30 00:33:24;;;;;;;9.43;7.00;;;;;;;10.52;71.09;102248.75;5054724;28;20056;-67
2023/04/30 00:35:50;;;;;;;10.88;6.88;;;;;;;10.58;71.28;102253.34;5054439;28;20489;-66
2023/04/30 00:38:15;;;;;;;11.55;7.43;;;;;;;10.58;71.08;102252.44;5054785;28;20029;-66
2023/04/30 00:40:42;;;;;;;12.73;7.25;;;;;;;10.55;71.32;102247.97;5054488;28;20512;-67
2023/04/30 00:43:07;;;;;;;12.13;7.10;;;;;;;10.52;71.32;102250.50;5054815;28;20071;-66
2023/04/30 00:45:32;;;;;;;11.00;7.40;;;;;;;10.46;72.22;102253.84;5054512;28;20569;-66
2023/04/30 00:47:58;;;;;;;12.38;6.85;;;;;;;10.39;72.16;102249.19;5054347;28;20104;-66
2023/04/30 00:50:24;;;;;;;11.13;7.43;;;;;;;10.37;72.71;102247.34;5054201;28;20029;-66
2023/04/30 00:52:50;;;;;;;12.52;7.53;;;;;;;10.40;72.76;102247.44;5054182;28;20078;-66
2023/04/30 00:55:16;;;;;;;12.75;6.95;;;;;;;10.33;72.69;102254.25;5054116;28;20025;-67
2023/04/30 00:57:42;;;;;;;12.18;7.15;;;;;;;10.23;72.92;102244.16;5054238;28;20474;-67
2023/04/30 01:00:12;;;;;;;12.57;7.13;;;;;;;10.29;73.52;102252.38;5054365;28;20029;-66
2023/04/30 01:02:37;;;;;;;11.32;7.40;;;;;;;10.37;72.95;102239.41;5053840;28;20040;-67
2023/04/30 01:05:03;;;;;;;12.55;7.47;;;;;;;10.35;73.63;102241.09;5053661;28;20107;-67
2023/04/30 01:07:30;;;;;;;14.50;7.47;;;;;;;10.41;73.29;102242.22;5054075;28;20044;-66
2023/04/30 01:09:56;;;;;;;12.20;7.68;;;;;;;10.40;72.96;102239.50;5053959;28;20025;-66
2023/04/30 01:12:40;;;;;;;10.50;7.20;;;;;;;10.40;72.86;102243.03;5053772;28;20059;-66
2023/04/30 01:15:14;;;;;;;12.27;7.40;;;;;;;10.28;73.51;102248.81;5053559;28;20044;-67
2023/04/30 01:17:47;;;;;;;12.63;7.70;;;;;;;10.20;73.69;102237.06;5054031;28;20036;-67
2023/04/30 01:20:12;;;;;;;10.73;7.85;;;;;;;10.11;74.09;102241.13;5053585;28;20083;-66
2023/04/30 01:22:59;;;;;;;10.90;8.20;;;;;;;10.03;75.07;102241.75;5035656;28;20029;-66
2023/04/30 01:25:52;;;;;;;11.80;7.80;;;;;;;9.99;74.44;102236.31;5053650;28;20021;-66
2023/04/30 01:28:20;;;;;;;;;;;;;;;10.08;72.67;102243.66;5053959;28;20441;-67
2023/04/30 01:30:46;;;;;;;11.00;7.25;;;;;;;9.99;74.99;102236.31;5053732;28;20003;-67
2023/04/30 01:33:12;;;;;;;15.60;7.60;;;;;;;9.98;75.19;102239.81;5053182;28;20604;-66
2023/04/30 01:35:49;;;;;;;9.75;7.30;;;;;;;9.90;74.92;102238.63;5053331;28;20035;-66
2023/04/30 01:38:30;;;;;;;11.80;7.72;;;;;;;9.90;75.89;102241.28;5053516;28;20079;-66
2023/04/30 01:41:06;;;;;;;11.63;7.82;;;;;;;9.86;75.75;102242.00;5053482;28;20386;-66
2023/04/30 01:44:01;;;;;;;10.77;7.47;;;;;;;9.89;75.70;102250.00;5066093;23;20068;-62
2023/04/30 01:46:30;;;;;;;11.13;7.53;;;;;;;9.86;75.87;102248.19;5033292;28;20033;-62
2023/04/30 01:49:14;;;;;;;12.15;7.88;;;;;;;9.78;76.00;102253.16;5033225;28;20029;-63
2023/04/30 01:51:41;;;;;;;13.35;8.45;;;;;;;9.69;76.17;102247.56;5033358;28;20031;-62
2023/04/30 01:54:39;;;;;;;11.18;7.30;;;;;;;9.69;76.14;102249.31;5033117;28;20057;-63
2023/04/30 01:57:15;;;;;;;13.25;7.93;;;;;;;9.69;76.04;102255.47;5004933;28;20091;-63
2023/04/30 01:59:42;;;;;;;11.77;8.07;;;;;;;9.67;76.27;102248.34;5033234;28;20028;-63
2023/04/30 02:02:07;;;;;;;11.55;7.95;;;;;;;9.65;76.61;102250.03;5032926;28;20042;-63
2023/04/30 02:04:33;;;;;;;11.25;7.95;;;;;;;9.60;76.52;102247.22;5033072;28;20033;-63
2023/04/30 02:06:58;;;;;;;12.45;8.07;;;;;;;9.58;76.52;102248.00;5033148;28;20087;-63
2023/04/30 02:09:24;;;;;;;12.13;7.43;;;;;;;9.54;76.87;102246.97;5032949;28;20042;-63
2023/04/30 02:11:50;;;;;;;12.05;7.80;;;;;;;9.49;76.99;102252.09;5033254;28;20036;-63
2023/04/30 02:14:15;;;;;;;13.35;8.23;;;;;;;9.49;77.35;102256.47;5031757;28;20033;-63
2023/04/30 02:16:41;;;;;;;10.45;7.70;;;;;;;9.43;76.77;102257.16;5033012;28;20482;-63
2023/04/30 02:19:06;;;;;;;14.88;7.60;;;;;;;9.50;77.28;102252.97;5033119;28;20032;-63
2023/04/30 02:21:31;;;;;;;11.02;7.93;;;;;;;9.45;77.60;102255.44;5032872;28;20390;-63
2023/04/30 02:23:57;;;;;;;11.82;7.72;;;;;;;9.53;77.55;102258.38;5032922;28;20116;-63
2023/04/30 02:26:22;;;;;;;13.65;8.60;;;;;;;9.48;77.41;102257.31;5037303;28;20026;-63
2023/04/30 02:28:47;;;;;;;13.02;8.23;;;;;;;9.42;77.76;102265.91;5037149;28;20382;-63
2023/04/30 02:31:13;;;;;;;13.38;8.30;;;;;;;9.43;78.07;102259.78;5036971;28;20057;-63
2023/04/30 02:33:38;;;;;;;13.30;8.07;;;;;;;9.42;77.99;102259.69;5036700;28;20027;-63
2023/04/30 02:36:04;;;;;;;15.32;8.35;;;;;;;9.43;77.92;102259.78;5036815;28;20554;-63
2023/04/30 02:38:29;;;;;;;11.60;8.05;;;;;;;9.40;78.13;102253.47;5037045;28;20043;-63
2023/04/30 02:40:55;;;;;;;12.65;8.23;;;;;;;9.34;78.19;102253.25;5036879;28;20033;-63
2023/04/30 02:43:20;;;;;;;14.07;8.15;;;;;;;9.28;78.68;102253.91;5036620;28;20050;-63
2023/04/30 02:45:46;;;;;;;11.38;7.88;;;;;;;9.26;78.49;102255.59;5036753;28;20030;-63
2023/04/30 02:48:11;;;;;;;12.05;8.07;;;;;;;9.20;78.84;102252.72;5036508;28;20036;-63
2023/04/30 02:50:36;;;;;;;13.18;8.02;;;;;;;9.16;79.17;102251.69;5036431;28;20658;-63
2023/04/30 02:53:02;;;;;;;12.50;8.02;;;;;;;9.19;78.99;102249.19;5036539;28;20033;-62
2023/04/30 02:55:27;;;;;;;12.98;8.27;;;;;;;9.13;78.84;102245.41;5036457;28;20022;-63
2023/04/30 02:57:52;;;;;;;14.27;8.35;;;;;;;9.09;78.37;102248.78;5018692;28;20033;-63
2023/04/30 03:00:18;;;;;;;13.57;7.93;;;;;;;9.04;78.87;102256.50;5036390;28;20362;-63
2023/04/30 03:02:43;;;;;;;14.52;8.77;;;;;;;9.01;79.83;102251.09;5036408;28;20163;-63
2023/04/30 03:05:10;;;;;;;13.63;8.73;;;;;;;9.00;79.60;102257.22;5036155;28;20482;-62
2023/04/30 03:07:35;;;;;;;14.13;8.75;;;;;;;8.95;80.00;102251.75;5018578;28;20040;-63
2023/04/30 03:10:00;;;;;;;12.55;8.38;;;;;;;9.00;79.58;102247.56;5036159;28;20061;-63
2023/04/30 03:12:26;;;;;;;12.60;8.82;;;;;;;9.03;78.99;102238.84;5036177;28;20025;-63
2023/04/30 03:14:51;;;;;;;13.68;8.35;;;;;;;9.00;79.23;102244.94;5036071;28;20025;-63
2023/04/30 03:17:17;;;;;;;13.80;8.73;;;;;;;8.97;79.31;102255.34;5035913;28;20029;-63
2023/04/30 03:19:42;;;;;;;11.68;8.48;;;;;;;8.96;79.16;102247.38;5035904;28;20049;-63
2023/04/30 03:22:09;;;;;;;15.02;9.02;;;;;;;8.89;79.27;102243.59;5036032;28;20026;-63
2023/04/30 03:24:35;;;;;;;10.70;7.78;;;;;;;8.86;78.51;102240.81;5036018;28;20030;-63
2023/04/30 03:27:00;;;;;;;15.13;8.93;;;;;;;8.81;79.57;102236.22;5035810;28;20051;-63
2023/04/30 03:29:26;;;;;;;11.65;8.32;;;;;;;8.80;80.10;102248.50;5035743;28;20554;-63
2023/04/30 03:31:51;;;;;;;14.82;8.60;;;;;;;8.76;80.04;102244.84;5035554;28;20509;-63
2023/04/30 03:34:17;;;;;;;13.93;8.45;;;;;;;8.70;79.92;102239.31;5035917;28;20029;-63
2023/04/30 03:36:42;;;;;;;12.07;8.77;;;;;;;8.69;79.88;102248.09;5034842;28;20470;-63
2023/04/30 03:39:08;;;;;;;13.45;8.90;;;;;;;8.68;80.04;102250.63;5035740;28;20052;-63
2023/04/30 03:41:34;;;;;;;13.50;8.98;;;;;;;8.57;80.28;102250.22;5036042;28;20116;-63
2023/04/30 03:43:59;;;;;;;11.95;8.43;;;;;;;8.55;79.94;102246.59;5035472;28;20462;-63
2023/04/30 03:46:25;;;;;;;15.48;8.82;;;;;;;8.50;80.57;102250.78;5035570;28;20024;-63
2023/04/30 03:48:50;;;;;;;12.00;8.68;;;;;;;8.53;79.82;102243.91;5035532;28;20375;-63
2023/04/30 03:51:18;;;;;;;14.10;8.82;;;;;;;8.52;80.55;102252.66;5035413;28;20104;-63
2023/04/30 03:53:44;;;;;;;15.98;8.57;;;;;;;8.52;80.80;102255.28;5035542;28;20154;-63
2023/04/30 03:56:09;;;;;;;12.68;8.50;;;;;;;8.48;80.21;102256.00;5035446;28;20071;-63
2023/04/30 03:58:35;;;;;;;15.13;9.32;;;;;;;8.47;81.03;102261.19;5035574;28;20370;-63
2023/04/30 04:01:00;;;;;;;14.10;9.18;;;;;;;8.47;80.26;102255.91;5035555;28;20021;-63
2023/04/30 04:03:26;;;;;;;13.77;8.88;;;;;;;8.45;80.89;102260.22;5017261;28;20442;-63
2023/04/30 04:05:51;;;;;;;12.32;8.30;;;;;;;8.42;80.87;102257.47;5035118;28;20099;-63
2023/04/30 04:08:17;;;;;;;11.85;8.60;;;;;;;8.41;81.06;102259.19;5035053;28;20025;-63
2023/04/30 04:10:42;;;;;;;11.57;8.05;;;;;;;8.40;80.54;102259.13;5035071;28;20029;-63
2023/04/30 04:13:08;;;;;;;15.90;8.13;;;;;;;8.41;80.87;102258.28;5035412;28;20037;-62
2023/04/30 04:15:33;;;;;;;14.00;8.85;;;;;;;8.45;81.41;102266.41;5035008;28;20053;-63
2023/04/30 04:17:59;;;;;;;15.05;8.88;;;;;;;8.42;80.19;102263.63;5035222;28;20119;-63
2023/04/30 04:20:24;;;;;;;12.98;8.98;;;;;;;8.50;80.83;102267.47;5034898;28;20501;-63
2023/04/30 04:22:50;;;;;;;13.98;8.73;;;;;;;8.58;80.72;102261.63;5034834;28;20018;-63
2023/04/30 04:25:16;;;;;;;13.05;8.27;;;;;;;8.64;80.82;102264.50;5034933;28;20029;-63
2023/04/30 04:27:42;;;;;;;13.73;9.35;;;;;;;8.64;80.21;102264.50;5034818;28;20072;-63
2023/04/30 04:30:08;;;;;;;12.98;8.75;;;;;;;8.63;80.41;102265.34;5034800;28;20382;-63
2023/04/30 04:32:45;;;;;;;10.77;8.48;;;;;;;8.64;79.65;102261.88;5034408;28;20064;-63
2023/04/30 04:35:10;;;;;;;12.45;8.75;;;;;;;8.58;80.36;102270.44;5034903;28;20084;-63
2023/04/30 04:37:36;;;;;;;12.93;9.32;;;;;;;8.46;81.40;102275.19;5034532;28;20033;-63
2023/04/30 04:40:03;;;;;;;13.95;8.82;;;;;;;8.43;81.44;102270.69;5034562;28;20037;-63
2023/04/30 04:42:29;;;;;;;12.40;8.88;;;;;;;8.45;81.94;102268.13;5034618;28;20079;-63
2023/04/30 04:44:55;;;;;;;13.95;8.95;;;;;;;8.49;81.22;102278.84;5034525;28;20140;-63
2023/04/30 04:47:21;;;;;;;14.45;9.35;;;;;;;8.47;82.16;102276.97;5034807;28;20053;-63
2023/04/30 04:49:47;;;;;;;12.93;9.25;;;;;;;8.56;82.08;102276.47;5035431;28;20032;-63
2023/04/30 04:52:12;;;;;;;14.48;9.20;;;;;;;8.63;81.09;102275.91;5034688;28;20092;-63
2023/04/30 04:54:37;;;;;;;12.70;9.00;;;;;;;8.65;80.71;102277.78;5034702;28;20025;-63
2023/04/30 04:57:03;;;;;;;13.57;8.90;;;;;;;8.73;81.24;102280.69;5016466;28;20513;-63
2023/04/30 04:59:28;;;;;;;11.95;9.43;;;;;;;8.84;81.23;102282.06;5016322;28;20041;-63
2023/04/30 05:01:54;;;;;;;16.40;8.60;;;;;;;8.86;80.49;102288.28;5033871;28;20018;-63
2023/04/30 05:04:19;;;;;;;12.23;8.55;;;;;;;8.98;80.53;102291.41;5034073;28;20068;-63
2023/04/30 05:06:45;;;;;;;13.65;8.85;;;;;;;9.12;80.70;102286.72;5033791;28;20033;-63
2023/04/30 05:09:10;;;;;;;14.65;8.95;;;;;;;9.19;79.82;102294.00;5033847;28;20053;-63
2023/04/30 05:11:37;;;;;;;15.55;9.60;;;;;;;9.32;79.94;102291.84;5033953;28;20033;-63
2023/04/30 05:14:02;;;;;;;14.63;10.05;;;;;;;9.38;79.92;102284.16;5034078;28;20121;-63
2023/04/30 05:16:27;;;;;;;14.05;10.07;;;;;;;9.41;80.46;102282.56;5033792;28;20486;-63
2023/04/30 05:18:53;;;;;;;13.95;10.07;;;;;;;9.45;80.02;102288.84;5033771;28;20033;-63
2023/04/30 05:21:18;;;;;;;15.20;10.13;;;;;;;9.53;80.28;102280.38;5033853;28;20026;-63
2023/04/30 05:23:43;;;;;;;14.23;9.85;;;;;;;9.56;79.86;102284.91;5033778;28;20036;-63
2023/04/30 05:26:09;;;;;;;14.77;10.20;;;;;;;9.66;79.85;102279.09;5033923;28;20036;-63
2023/04/30 05:28:34;;;;;;;15.45;10.25;;;;;;;9.70;79.45;102280.13;5033559;28;20373;-63
2023/04/30 05:31:00;;;;;;;14.70;9.85;;;;;;;9.70;80.19;102281.03;5033703;28;20037;-63
2023/04/30 05:33:25;;;;;;;13.52;10.02;;;;;;;9.73;80.31;102273.22;5015663;28;20071;-63
2023/04/30 05:35:50;;;;;;;14.50;9.85;;;;;;;9.83;80.15;102281.47;5033616;28;20025;-63
2023/04/30 05:38:16;;;;;;;13.90;9.75;;;;;;;9.90;80.02;102281.78;5033522;28;20093;-63
2023/04/30 05:40:41;;;;;;;17.92;10.73;;;;;;;10.02;79.83;102278.66;5033480;28;20112;-63
2023/04/30 05:43:07;;;;;;;15.25;10.25;;;;;;;10.09;79.28;102282.41;5033376;28;20050;-64
2023/04/30 05:45:32;;;;;;;17.00;9.55;;;;;;;10.19;79.53;102287.19;5033071;28;20045;-63
2023/04/30 05:47:58;;;;;;;16.02;10.18;;;;;;;10.24;78.50;102283.91;5015574;28;20521;-63
2023/04/30 05:50:23;;;;;;;13.30;10.18;;;;;;;10.34;78.93;102276.28;5033188;28;20057;-63
2023/04/30 05:52:49;;;;;;;14.38;9.45;;;;;;;10.40;78.94;102281.78;5015572;28;20041;-63
2023/04/30 05:55:14;;;;;;;13.35;9.43;;;;;;;10.46;78.63;102280.25;5033507;28;20084;-63
2023/04/30 05:57:39;;;;;;;14.18;9.68;;;;;;;10.57;78.54;102270.03;5033186;28;20033;-63
2023/04/30 06:00:06;;;;;;;15.38;9.35;;;;;;;10.68;78.07;102279.25;5032603;28;20037;-63
2023/04/30 06:02:31;;;;;;;14.40;9.05;;;;;;;10.84;77.66;102277.13;5032661;28;20021;-63
2023/04/30 06:04:57;;;;;;;14.20;9.52;;;;;;;10.88;77.63;102277.25;5033106;28;20155;-63
2023/04/30 06:07:22;;;;;;;11.10;8.25;;;;;;;10.97;76.34;102280.19;5033029;28;20029;-63
2023/04/30 06:09:48;;;;;;;12.90;8.80;;;;;;;11.01;77.10;102284.75;5032932;28;20033;-63
2023/04/30 06:12:13;;;;;;;14.02;9.00;;;;;;;11.05;75.44;102280.44;5033248;28;20030;-63
2023/04/30 06:14:42;;;;;;;11.52;8.60;;;;;;;11.14;75.95;102282.47;5032923;28;20037;-63
2023/04/30 06:17:07;;;;;;;12.27;8.70;;;;;;;11.25;75.69;102279.28;5032967;28;20228;-63
2023/04/30 06:19:33;;;;;;;13.35;8.48;;;;;;;11.40;75.26;102280.63;5032702;28;20437;-63
2023/04/30 06:21:58;;;;;;;12.77;8.57;;;;;;;11.55;75.32;102275.78;5032866;28;20029;-63
2023/04/30 06:24:26;;;;;;;11.82;8.63;;;;;;;11.76;75.55;102286.09;5033090;28;20028;-63
2023/04/30 06:26:51;;;;;;;13.93;8.63;;;;;;;11.81;74.74;102279.19;5032690;28;20543;-63
2023/04/30 06:29:17;;;;;;;10.15;7.97;;;;;;;11.91;74.02;102276.00;5032706;28;20113;-63
2023/04/30 06:31:42;;;;;;;12.43;8.18;;;;;;;12.00;72.66;102270.97;5015177;28;20040;-64
2023/04/30 06:34:07;;;;;;;11.80;7.88;;;;;;;12.14;73.23;102270.44;5033234;28;20072;-63
2023/04/30 06:36:33;;;;;;;9.80;7.13;;;;;;;12.17;72.14;102266.13;5033361;28;20072;-63
2023/04/30 06:38:58;;;;;;;11.60;8.20;;;;;;;12.26;71.75;102270.78;5032732;28;20063;-64
2023/04/30 06:41:23;;;;;;;15.02;7.90;;;;;;;12.39;71.73;102272.00;5014908;28;20125;-64
2023/04/30 06:43:49;;;;;;;12.88;8.07;;;;;;;12.48;70.99;102275.78;5032370;28;20052;-64
2023/04/30 06:46:15;;;;;;;12.80;7.70;;;;;;;12.61;71.50;102276.97;5032999;28;20226;-64
2023/04/30 06:48:40;;;;;;;10.65;7.65;;;;;;;12.57;69.75;102272.47;5032530;28;20463;-64
2023/04/30 06:51:06;;;;;;;11.45;7.88;;;;;;;12.68;70.75;102272.75;5032318;28;20028;-63
2023/04/30 06:53:31;;;;;;;15.45;8.48;;;;;;;12.81;71.26;102280.13;5015026;28;20104;-64
2023/04/30 06:55:56;;;;;;;12.35;8.02;;;;;;;13.01;69.56;102275.28;5032466;28;20124;-64
2023/04/30 06:58:22;;;;;;;11.45;8.18;;;;;;;13.17;69.13;102280.09;5032523;28;20038;-63
2023/04/30 07:00:48;;;;;;;11.70;7.95;;;;;;;13.31;68.24;102288.41;5032722;28;20029;-64
2023/04/30 07:03:13;;;;;;;13.10;8.05;;;;;;;13.46;67.73;102287.88;5032251;28;20372;-64
2023/04/30 07:05:38;;;;;;;11.32;7.45;;;;;;;13.67;66.86;102276.81;5032657;28;20275;-64
2023/04/30 07:08:05;;;;;;;12.55;8.02;;;;;;;13.83;66.73;102280.66;5032494;28;20033;-64
2023/04/30 07:10:31;;;;;;;10.77;7.68;;;;;;;13.99;65.82;102290.75;5033366;28;20108;-64
2023/04/30 07:12:57;;;;;;;12.63;7.82;;;;;;;14.18;65.21;102286.69;5036355;28;20049;-64
2023/04/30 07:15:22;;;;;;;9.50;7.38;;;;;;;14.38;64.95;102289.69;5036232;28;20025;-64
2023/04/30 07:17:48;;;;;;;11.75;7.80;;;;;;;14.52;64.25;102283.81;5036157;28;20060;-64
2023/04/30 07:20:14;;;;;;;10.90;7.70;;;;;;;14.70;64.82;102280.56;5035966;28;20080;-64
2023/04/30 07:22:43;;;;;;;12.95;7.70;;;;;;;14.95;63.63;102284.53;5035966;28;20029;-64
2023/04/30 07:25:08;;;;;;;12.55;7.70;;;;;;;15.20;63.13;102269.81;5036243;28;20488;-64
2023/04/30 07:27:34;;;;;;;11.68;8.23;;;;;;;15.47;62.17;102273.75;5035827;28;20478;-64
2023/04/30 07:29:59;;;;;;;11.68;7.95;;;;;;;15.55;61.19;102268.53;5035750;28;20111;-64
2023/04/30 07:32:26;;;;;;;11.63;7.60;;;;;;;15.80;61.29;102272.41;5035764;28;20021;-64
2023/04/30 07:34:52;;;;;;;11.93;7.97;;;;;;;16.01;61.54;102268.19;5035906;28;20117;-64
2023/04/30 07:37:18;;;;;;;12.10;8.20;;;;;;;16.17;59.84;102266.59;5035729;28;20712;-64
2023/04/30 07:39:43;;;;;;;11.73;7.72;;;;;;;16.10;57.85;102267.44;5035736;28;20022;-64
2023/04/30 07:42:09;;;;;;;12.38;8.18;;;;;;;16.00;59.57;102270.88;5035907;28;20533;-64
2023/04/30 07:44:34;;;;;;;10.88;7.68;;;;;;;16.03;58.74;102265.56;5035337;28;20042;-64
2023/04/30 07:46:59;;;;;;;11.18;7.85;;;;;;;16.15;58.60;102273.72;5035774;28;20036;-64
2023/04/30 07:49:25;;;;;;;13.25;7.93;;;;;;;16.16;58.46;102271.94;5035452;28;20041;-64
2023/04/30 07:51:50;;;;;;;12.93;8.77;;;;;;;16.20;57.78;102263.97;5035564;28;20037;-64
2023/04/30 07:54:16;;;;;;;11.95;8.05;;;;;;;16.29;58.05;102265.84;5035838;28;20533;-64
2023/04/30 07:56:42;;;;;;;11.57;8.40;;;;;;;16.41;58.65;102265.97;5001381;28;20067;-64
2023/04/30 07:59:07;;;;;;;11.75;8.10;;;;;;;16.62;58.63;102265.28;5035506;28;20167;-64
2023/04/30 08:01:32;;;;;;;10.70;8.25;;;;;;;16.78;58.18;102271.63;5018010;28;20479;-64
2023/04/30 08:03:58;;;;;;;11.73;7.80;;;;;;;16.90;56.71;102274.41;5036107;28;20026;-63
2023/04/30 08:06:24;;;;;;;11.00;8.02;;;;;;;17.14;56.45;102262.13;5036159;28;20478;-63
2023/04/30 08:08:49;;;;;;;12.43;8.20;;;;;;;17.30;55.16;102268.44;5017710;28;20026;-63
2023/04/30 08:11:15;;;;;;;14.57;8.20;;;;;;;17.35;55.41;102269.38;5035112;28;20062;-64
2023/04/30 08:13:41;;;;;;;10.10;7.60;;;;;;;17.60;54.77;102268.63;5035158;28;20049;-63
2023/04/30 08:16:07;;;;;;;11.63;8.00;;;;;;;17.90;54.67;102270.56;5034957;28;20029;-64
2023/04/30 08:18:32;;;;;;;10.48;7.60;;;;;;;18.14;52.15;102274.16;5035223;28;20052;-64
2023/04/30 08:20:59;;;;;;;9.90;7.80;;;;;;;18.36;51.09;102264.38;5035096;28;20458;-64
2023/04/30 08:23:24;;;;;;;13.82;8.40;;;;;;;18.51;52.45;102276.00;5034433;28;20085;-64
2023/04/30 08:25:50;;;;;;;11.38;7.90;;;;;;;18.54;51.78;102267.06;5034839;28;20422;-64
2023/04/30 08:28:16;;;;;;;12.05;8.40;;;;;;;18.80;52.78;102269.81;5017033;28;20036;-64
2023/04/30 08:30:42;;;;;;;10.90;8.15;;;;;;;18.89;49.42;102269.81;5034758;28;20033;-64
2023/04/30 08:33:08;;;;;;;11.57;7.45;;;;;;;19.13;50.56;102267.97;5034684;28;20467;-64
2023/04/30 08:35:33;;;;;;;11.60;8.13;;;;;;;19.25;49.35;102265.25;5034590;28;20061;-64
2023/04/30 08:37:58;;;;;;;9.60;7.35;;;;;;;19.45;49.38;102265.22;5034577;28;20021;-64
2023/04/30 08:40:25;;;;;;;9.65;7.15;;;;;;;19.53;49.22;102263.41;5034529;28;20400;-64
2023/04/30 08:43:03;;;;;;;10.73;7.75;;;;;;;19.51;48.90;102263.38;5034738;28;20364;-64
2023/04/30 08:45:31;;;;;;;9.88;7.50;;;;;;;19.57;47.91;102266.94;5034098;28;20080;-64
2023/04/30 08:47:58;;;;;;;11.40;7.47;;;;;;;19.62;47.11;102263.41;5034338;28;20021;-64
2023/04/30 08:50:24;;;;;;;10.40;7.00;;;;;;;19.66;48.22;102267.84;5034351;28;20029;-64
2023/04/30 08:52:49;;;;;;;12.05;7.95;;;;;;;19.80;47.97;102272.25;5016597;28;20018;-64
2023/04/30 08:55:15;;;;;;;11.27;8.23;;;;;;;20.04;48.36;102264.06;5016625;28;20052;-65
2023/04/30 08:57:40;;;;;;;9.45;7.18;;;;;;;20.23;48.82;102260.38;5034249;28;20501;-65
2023/04/30 09:00:06;;;;;;;11.57;7.63;;;;;;;20.45;48.57;102263.78;5034168;28;20029;-64
2023/04/30 09:02:33;;;;;;;9.45;7.07;;;;;;;20.41;45.79;102262.03;5033841;28;20041;-65
2023/04/30 09:04:58;;;;;;;10.18;7.65;;;;;;;20.50;47.87;102261.09;5033973;28;20037;-65
2023/04/30 09:07:27;;;;;;;9.32;7.07;;;;;;;20.50;45.44;102264.69;5034078;28;20401;-65
2023/04/30 09:09:53;;;;;;;12.32;7.93;;;;;;;20.53;47.97;102265.56;5034136;28;20092;-65
2023/04/30 09:12:18;;;;;;;10.20;7.32;;;;;;;20.66;45.24;102256.50;5016365;28;20481;-65
2023/04/30 09:15:01;;;;;;;12.00;7.45;;;;;;;21.00;47.64;102257.09;5034108;28;20045;-65
2023/04/30 09:17:26;;;;;;;8.95;6.65;;;;;;;21.12;44.75;102256.97;5033926;28;20036;-65
2023/04/30 09:19:52;;;;;;;12.18;7.00;;;;;;;21.15;44.12;102254.22;5034027;28;20025;-65
2023/04/30 09:22:22;;;;;;;10.18;7.05;;;;;;;21.35;43.70;102250.47;5033786;28;20073;-65
2023/04/30 09:24:49;;;;;;;9.68;7.32;;;;;;;21.32;45.65;102245.13;5016170;28;20033;-65
2023/04/30 09:27:20;;;;;;;10.73;7.50;;;;;;;21.41;44.57;102247.69;5033582;28;20470;-65
2023/04/30 09:29:45;;;;;;;8.88;6.63;;;;;;;21.63;43.65;102251.03;5033420;28;20033;-66
2023/04/30 09:32:11;;;;;;;9.25;6.75;;;;;;;21.74;42.59;102243.69;5033345;28;20506;-65
2023/04/30 09:34:36;;;;;;;9.35;6.70;;;;;;;21.91;44.20;102246.16;5032858;28;20033;-66
2023/04/30 09:37:02;;;;;;;7.85;6.32;;;;;;;21.88;41.23;102244.41;5033378;28;20399;-66
2023/04/30 09:39:28;;;;;;;10.27;6.90;;;;;;;22.07;41.90;102238.78;5016009;28;20037;-66
2023/04/30 09:42:08;;;;;;;10.18;7.22;;;;;;;22.14;43.36;102238.69;5033355;28;20026;-65
2023/04/30 09:44:36;;;;;;;9.30;6.50;;;;;;;21.97;41.81;102246.97;5020648;28;20050;-65
2023/04/30 09:47:02;;;;;;;9.98;6.28;;;;;;;22.03;41.04;102237.91;5033253;28;20036;-65
2023/04/30 09:49:27;;;;;;;8.40;6.72;;;;;;;22.36;40.75;102238.38;5033127;28;20387;-66
2023/04/30 09:52:00;;;;;;;8.63;6.20;;;;;;;22.61;42.54;102236.13;5033362;28;20029;-66
2023/04/30 09:54:28;;;;;;;9.63;6.50;;;;;;;22.83;40.25;102242.94;5036051;28;20025;-65
2023/04/30 09:56:58;;;;;;;9.32;6.75;;;;;;;22.94;39.00;102242.75;5035134;28;20112;-66
2023/04/30 09:59:34;;;;;;;7.35;5.38;;;;;;;22.88;39.16;102234.78;5041567;28;20041;-65
2023/04/30 10:02:01;;;;;;;8.65;6.20;;;;;;;22.89;40.14;102229.34;5037040;28;20033;-65
2023/04/30 10:04:31;;;;;;;7.63;6.40;;;;;;;22.71;38.81;102237.75;5034909;28;20022;-65
2023/04/30 10:06:58;;;;;;;9.82;6.88;;;;;;;22.71;40.20;102240.47;5033358;28;20029;-65
2023/04/30 10:09:27;;;;;;;10.02;6.68;;;;;;;22.57;39.31;102229.00;5033416;28;20076;-65
2023/04/30 10:11:55;;;;;;;9.07;6.50;;;;;;;22.80;40.53;102229.50;5033335;28;20036;-65
2023/04/30 10:14:23;;;;;;;10.68;6.43;;;;;;;22.49;39.41;102234.56;5032888;28;20033;-65
2023/04/30 10:16:50;;;;;;;8.40;5.80;;;;;;;22.73;39.80;102217.06;5032924;28;20036;-65
2023/04/30 10:19:23;;;;;;;6.82;5.72;;;;;;;22.94;38.50;102222.09;5032999;28;20029;-65
2023/04/30 10:21:48;;;;;;;7.00;4.80;;;;;;;23.16;39.53;102222.56;5032749;28;20579;-67
2023/04/30 10:24:19;;;;;;;7.88;5.60;;;;;;;23.68;39.32;102212.50;5033075;28;20104;-68
2023/04/30 10:26:46;;;;;;;8.15;5.95;;;;;;;23.95;37.87;102213.72;5032872;28;20032;-67
2023/04/30 10:29:16;;;;;;;9.60;6.30;;;;;;;23.93;37.96;102208.34;5032989;28;20021;-66
2023/04/30 10:31:45;;;;;;;8.88;6.43;;;;;;;23.77;38.72;102206.94;5032724;28;20032;-66
2023/04/30 10:34:18;;;;;;;9.35;6.70;;;;;;;23.98;37.31;102209.16;5032410;28;20026;-66
2023/04/30 10:36:53;;;;;;;7.93;6.45;;;;;;;24.17;37.55;102203.31;5032680;28;20026;-66
2023/04/30 10:39:22;;;;;;;6.93;5.80;;;;;;;24.14;38.04;102201.53;5032918;28;20029;-66
2023/04/30 10:41:48;;;;;;;6.70;5.20;;;;;;;24.09;36.93;102195.38;5031183;28;20025;-68
2023/04/30 10:44:21;;;;;;;6.90;5.55;;;;;;;24.02;37.81;102190.16;5032289;28;20060;-66
2023/04/30 10:46:47;;;;;;;7.50;5.75;;;;;;;24.05;39.00;102192.78;5035082;28;20041;-67
2023/04/30 10:49:13;;;;;;;8.60;6.07;;;;;;;24.24;36.71;102196.84;5036584;28;20042;-68
2023/04/30 10:51:53;;;;;;;8.48;6.60;;;;;;;24.22;37.56;102187.84;5036258;28;20038;-69
2023/04/30 10:54:24;;;;;;;8.27;6.00;;;;;;;24.32;37.62;102183.09;5036490;28;20080;-68
2023/04/30 10:56:51;;;;;;;7.68;6.18;;;;;;;24.28;37.33;102178.69;5036540;28;20052;-68
2023/04/30 10:59:17;;;;;;;6.75;5.28;;;;;;;24.52;37.87;102171.84;5036458;28;20389;-66
2023/04/30 11:01:55;;;;;;;6.38;4.72;;;;;;;24.39;35.84;102169.44;5036280;28;20109;-66
2023/04/30 11:04:21;;;;;;;6.45;4.85;;;;;;;24.08;35.81;102168.41;5036187;28;20096;-65
2023/04/30 11:06:55;;;;;;;6.18;4.63;;;;;;;24.31;35.50;102160.59;5036184;28;20633;-66
2023/04/30 11:09:38;;;;;;;7.53;5.75;;;;;;;23.91;38.02;102171.53;5036045;28;20025;-66
2023/04/30 11:12:29;;;;;;;7.18;5.68;;;;;;;23.98;38.22;102149.75;5036197;28;20029;-66
2023/04/30 11:15:06;;;;;;;7.83;5.43;;;;;;;24.08;36.26;102155.78;5033066;28;20037;-66
2023/04/30 11:17:33;;;;;;;7.45;5.75;;;;;;;24.23;37.25;102146.41;5036035;28;20099;-66
2023/04/30 11:19:59;;;;;;;8.57;5.60;;;;;;;24.46;37.92;102144.06;5035804;28;20509;-66
2023/04/30 11:22:28;;;;;;;8.23;5.70;;;;;;;24.79;35.37;102140.44;5036157;28;20049;-66